Time;durP1;ratioP1;P1;durP2;ratioP2;P2;SDS_P1;SDS_P2;PMS_P1;PMS_P2;Temp;Humidity;BMP_temperature;BMP_pressure;BME280_temperature;BME280_humidity;BME280_pressure;Samples;Min_cycle;Max_cycle;Signal;HPM_P1;HPM_P2
2022/03/17 14:43:40;;;;;;;9.35;2.08;;;20.80;43.70;;;;;;4972375;28;20601;-71
2022/03/17 14:46:07;;;;;;;5.18;1.38;;;21.40;44.40;;;;;;4976322;28;20469;-68
2022/03/17 14:48:34;;;;;;;10.40;2.05;;;21.40;44.20;;;;;;4993582;28;20050;-79
2022/03/17 14:51:40;;;;;;;10.52;1.92;;;21.40;43.70;;;;;;4979030;28;20106;-70
2022/03/17 14:54:16;;;;;;;9.27;1.67;;;21.20;43.20;;;;;;4970947;28;20097;-78
2022/03/17 15:00:28;;;;;;;11.43;1.73;;;21.90;41.10;;;;;;4972657;28;20105;-80
2022/03/17 15:02:55;;;;;;;8.70;2.00;;;21.60;41.40;;;;;;4924776;28;20502;-79
2022/03/17 15:05:21;;;;;;;12.13;2.03;;;21.70;41.70;;;;;;4955592;28;20054;-80
2022/03/17 15:07:48;;;;;;;12.13;2.10;;;22.40;41.60;;;;;;4968744;28;20054;-79
2022/03/17 15:10:15;;;;;;;8.00;1.88;;;22.20;40.70;;;;;;4940320;28;20051;-80
2022/03/17 15:12:41;;;;;;;13.38;2.70;;;21.90;41.90;;;;;;4939183;28;20055;-80
2022/03/17 15:15:08;;;;;;;7.93;1.65;;;21.60;42.60;;;;;;4952672;28;20047;-80
2022/03/17 15:17:35;;;;;;;10.35;1.50;;;21.80;42.10;;;;;;4941767;29;20565;-79
2022/03/17 15:20:05;;;;;;;7.75;1.42;;;22.30;41.50;;;;;;4943130;29;20541;-79
2022/03/17 15:22:31;;;;;;;6.15;1.30;;;22.50;41.40;;;;;;4952524;28;20051;-79
2022/03/17 15:24:57;;;;;;;9.38;1.75;;;22.50;40.20;;;;;;4970295;28;20054;-80
2022/03/17 15:30:10;;;;;;;7.43;1.85;;;22.20;40.70;;;;;;4968340;28;20140;-79
2022/03/17 15:32:37;;;;;;;11.57;2.58;;;22.10;42.10;;;;;;4981840;28;20193;-79
2022/03/17 15:35:11;;;;;;;8.77;1.73;;;22.10;42.10;;;;;;4999045;28;20142;-78
2022/03/17 15:37:40;;;;;;;9.90;2.17;;;21.90;42.30;;;;;;4982413;28;20497;-79
2022/03/17 15:40:09;;;;;;;12.50;1.88;;;21.90;42.60;;;;;;4966364;28;20046;-78
2022/03/17 15:42:42;;;;;;;9.20;1.90;;;22.10;43.20;;;;;;4981993;28;20050;-80
2022/03/17 15:45:11;;;;;;;7.57;2.03;;;21.40;42.70;;;;;;4978886;28;20055;-80
2022/03/17 15:47:38;;;;;;;11.32;2.30;;;21.10;44.10;;;;;;4980630;28;20051;-79
2022/03/17 15:50:06;;;;;;;11.07;2.42;;;21.00;45.10;;;;;;4980535;28;20410;-79
2022/03/17 15:52:34;;;;;;;10.07;1.80;;;20.70;45.40;;;;;;4964227;28;20043;-79
2022/03/17 15:55:16;;;;;;;13.20;2.10;;;20.10;45.60;;;;;;4907483;29;20520;-79
2022/03/17 15:57:43;;;;;;;11.32;2.47;;;19.80;46.70;;;;;;4874581;29;20504;-79
2022/03/17 16:00:09;;;;;;;9.68;2.00;;;19.50;47.30;;;;;;4920541;29;20091;-80
2022/03/17 16:02:35;;;;;;;9.90;2.58;;;19.30;47.40;;;;;;4922661;29;20495;-79
2022/03/17 16:05:02;;;;;;;15.82;2.10;;;18.90;47.80;;;;;;4906798;29;20089;-78
2022/03/17 16:07:29;;;;;;;13.35;2.50;;;18.50;48.70;;;;;;4923258;29;20062;-78
2022/03/17 16:15:43;;;;;;;13.50;2.22;;;18.00;51.70;;;;;;4923843;29;20051;-79
2022/03/17 16:18:14;;;;;;;7.57;1.95;;;17.80;52.40;;;;;;4923682;29;20054;-79
2022/03/17 16:20:41;;;;;;;9.52;3.08;;;18.30;52.00;;;;;;4923019;29;20051;-80
2022/03/17 16:23:09;;;;;;;12.48;2.25;;;18.30;51.90;;;;;;4904570;29;20064;-79
2022/03/17 16:25:54;;;;;;;10.18;2.08;;;18.10;51.90;;;;;;4887938;29;20771;-80
2022/03/17 16:28:31;;;;;;;11.25;2.10;;;17.40;52.70;;;;;;4882844;29;20056;-80
2022/03/17 16:30:57;;;;;;;10.23;1.90;;;17.70;53.40;;;;;;4867319;29;20049;-79
2022/03/17 16:33:23;;;;;;;12.82;2.30;;;17.70;54.20;;;;;;4949001;28;20490;-79
2022/03/17 16:35:49;;;;;;;13.82;1.92;;;17.60;53.60;;;;;;4957668;28;20074;-79
2022/03/17 16:38:17;;;;;;;9.43;2.70;;;17.20;54.30;;;;;;4944499;28;20054;-79
2022/03/17 16:40:44;;;;;;;14.10;2.72;;;17.40;55.20;;;;;;4962123;28;20135;-79
2022/03/17 16:43:14;;;;;;;11.35;2.17;;;17.20;57.70;;;;;;4973411;28;20130;-79
2022/03/17 16:45:46;;;;;;;15.18;3.28;;;16.50;63.90;;;;;;4955036;29;20055;-79
2022/03/17 16:48:13;;;;;;;11.45;2.03;;;15.40;78.00;;;;;;4901523;29;20063;-77
2022/03/17 16:50:40;;;;;;;12.52;2.30;;;14.30;89.40;;;;;;4916652;29;20635;-78
2022/03/17 16:53:10;;;;;;;11.60;1.58;;;13.30;93.30;;;;;;4916496;29;20135;-78
2022/03/17 16:55:36;;;;;;;9.63;2.03;;;12.50;95.20;;;;;;4901149;29;20056;-79
2022/03/17 16:58:05;;;;;;;10.48;3.08;;;12.00;96.70;;;;;;4938640;29;20039;-79
2022/03/17 17:00:31;;;;;;;14.30;2.28;;;11.60;98.30;;;;;;4919011;29;20141;-78
2022/03/17 17:03:00;;;;;;;12.52;2.58;;;11.20;99.40;;;;;;4920139;29;20098;-78
2022/03/17 17:05:31;;;;;;;17.13;3.05;;;10.90;99.90;;;;;;4919916;29;20058;-78
2022/03/17 17:07:57;;;;;;;16.38;3.30;;;10.70;99.90;;;;;;4935653;29;20051;-78
2022/03/17 17:10:24;;;;;;;16.13;4.05;;;10.40;99.90;;;;;;4919926;29;20146;-78
2022/03/17 17:12:51;;;;;;;14.48;2.67;;;10.20;99.90;;;;;;4919357;29;20531;-78
2022/03/17 17:15:29;;;;;;;14.13;2.28;;;10.00;99.90;;;;;;4921210;29;20056;-78
2022/03/17 17:18:01;;;;;;;18.08;2.63;;;9.90;99.90;;;;;;4919689;29;20775;-78
2022/03/17 17:20:37;;;;;;;14.43;2.47;;;9.80;99.90;;;;;;4943271;29;20097;-78
2022/03/17 17:31:19;;;;;;;20.42;3.28;;;9.30;99.90;;;;;;4941446;29;20290;-79
2022/03/17 17:33:47;;;;;;;14.55;3.60;;;9.20;99.90;;;;;;4938088;29;20122;-78
2022/03/17 17:36:13;;;;;;;16.90;3.83;;;9.00;99.90;;;;;;4955755;29;20402;-77
2022/03/17 17:38:39;;;;;;;17.67;2.95;;;8.90;99.90;;;;;;4953634;28;20126;-78
2022/03/17 17:41:06;;;;;;;9.60;2.25;;;8.90;99.90;;;;;;4954168;29;20051;-77
2022/03/17 17:43:35;;;;;;;16.45;3.28;;;8.70;99.90;;;;;;4957828;28;20117;-76
2022/03/17 17:46:02;;;;;;;18.52;3.17;;;8.60;99.90;;;;;;4973270;28;20051;-78
2022/03/17 17:48:30;;;;;;;9.20;3.22;;;8.60;99.90;;;;;;4974104;28;20141;-78
2022/03/17 17:50:56;;;;;;;21.90;3.65;;;8.50;99.90;;;;;;4973509;28;20114;-78
2022/03/17 17:53:22;;;;;;;14.52;2.83;;;8.30;99.90;;;;;;4974282;28;20458;-77
2022/03/17 17:55:50;;;;;;;17.00;3.20;;;8.20;99.90;;;;;;4974151;28;20047;-78
2022/03/17 17:58:26;;;;;;;13.68;2.67;;;8.10;99.90;;;;;;4959044;28;20050;-78
2022/03/17 18:00:51;;;;;;;16.85;3.83;;;8.00;99.90;;;;;;4972942;28;20065;-78
2022/03/17 18:03:27;;;;;;;14.00;2.72;;;8.00;99.90;;;;;;4972981;28;20051;-77
2022/03/17 18:06:00;;;;;;;18.42;2.50;;;7.90;99.90;;;;;;4958212;28;20505;-77
2022/03/17 18:08:31;;;;;;;16.20;2.55;;;7.80;99.90;;;;;;4973166;28;20047;-78
2022/03/17 18:10:57;;;;;;;19.75;2.80;;;7.70;99.90;;;;;;4973513;28;20054;-77
2022/03/17 18:13:30;;;;;;;17.50;3.10;;;7.60;99.90;;;;;;4962975;28;20529;-77
2022/03/17 18:16:00;;;;;;;16.88;3.13;;;7.60;99.90;;;;;;4974632;28;20047;-77
2022/03/17 18:18:32;;;;;;;21.13;3.75;;;7.50;99.90;;;;;;4940919;28;20093;-77
2022/03/17 18:20:58;;;;;;;31.77;5.30;;;7.50;99.90;;;;;;4972373;28;20777;-76
2022/03/17 18:23:27;;;;;;;16.15;2.97;;;7.40;99.90;;;;;;4974325;28;20085;-79
2022/03/17 18:25:55;;;;;;;15.95;3.13;;;7.30;99.90;;;;;;4972323;28;20133;-76
2022/03/17 18:28:28;;;;;;;31.30;4.00;;;7.30;99.90;;;;;;4957386;28;20536;-78
2022/03/17 18:30:56;;;;;;;14.02;4.20;;;7.20;99.90;;;;;;4956793;28;20514;-77
2022/03/17 18:33:34;;;;;;;18.15;2.92;;;7.10;99.90;;;;;;4972855;28;20050;-77
2022/03/17 18:36:06;;;;;;;11.38;2.78;;;7.10;99.90;;;;;;4957133;28;20061;-78
2022/03/17 18:38:34;;;;;;;16.30;3.47;;;7.10;99.90;;;;;;4973395;28;20410;-78
2022/03/17 18:41:01;;;;;;;16.35;2.97;;;7.00;99.90;;;;;;4956820;28;20054;-76
2022/03/17 18:43:27;;;;;;;13.57;3.60;;;6.90;99.90;;;;;;4959071;28;20065;-76
2022/03/17 18:45:53;;;;;;;16.95;3.90;;;6.90;99.90;;;;;;4959401;28;20082;-76
2022/03/17 18:48:19;;;;;;;14.98;3.35;;;6.80;99.90;;;;;;4995322;28;20561;-79
2022/03/17 18:50:46;;;;;;;20.33;3.67;;;6.80;99.90;;;;;;4996744;28;20058;-78
2022/03/17 18:53:20;;;;;;;15.55;4.05;;;6.80;99.90;;;;;;4994141;28;20109;-77
2022/03/17 18:55:45;;;;;;;19.67;3.95;;;6.80;99.90;;;;;;4993994;28;20043;-77
2022/03/17 18:58:12;;;;;;;15.95;2.92;;;6.80;99.90;;;;;;4991895;28;20050;-77
2022/03/17 19:00:42;;;;;;;16.67;2.83;;;6.80;99.90;;;;;;4975337;28;20042;-77
2022/03/17 19:03:09;;;;;;;19.13;4.47;;;6.80;99.90;;;;;;4976019;28;20057;-77
2022/03/17 19:05:35;;;;;;;19.80;3.72;;;6.80;99.90;;;;;;4992234;28;20659;-77
2022/03/17 19:08:10;;;;;;;16.98;3.33;;;6.70;99.90;;;;;;4992355;28;20378;-77
2022/03/17 19:10:56;;;;;;;14.10;2.67;;;6.70;99.90;;;;;;4975350;28;20069;-78
2022/03/17 19:13:25;;;;;;;21.27;4.72;;;6.60;99.90;;;;;;4959464;28;20050;-77
2022/03/17 19:15:54;;;;;;;18.42;3.88;;;6.60;99.90;;;;;;4991807;28;20116;-76
2022/03/17 19:18:28;;;;;;;13.35;3.50;;;6.60;99.90;;;;;;4977021;28;20046;-76
2022/03/17 19:20:54;;;;;;;16.48;3.67;;;6.50;99.90;;;;;;4974012;28;20046;-76
2022/03/17 19:23:23;;;;;;;17.42;3.72;;;6.50;99.90;;;;;;4976249;28;20050;-76
2022/03/17 19:25:51;;;;;;;16.27;4.30;;;6.50;99.90;;;;;;4991466;28;20185;-78
2022/03/17 19:28:17;;;;;;;24.05;4.53;;;6.50;99.90;;;;;;4990947;28;20046;-78
2022/03/17 19:30:47;;;;;;;14.48;3.88;;;6.40;99.90;;;;;;4994495;28;20046;-77
2022/03/17 19:33:14;;;;;;;20.83;4.20;;;6.40;99.90;;;;;;4998472;28;20053;-78
2022/03/17 19:35:40;;;;;;;17.90;4.20;;;6.40;99.90;;;;;;4993113;28;20058;-77
2022/03/17 19:38:06;;;;;;;26.90;5.00;;;6.40;99.90;;;;;;4991733;28;20062;-77
2022/03/17 19:41:09;;;;;;;22.70;4.45;;;6.40;99.90;;;;;;4991503;28;20472;-76
2022/03/17 19:43:21;;;;;;;23.02;6.15;;;6.40;99.90;;;;;;4991023;28;20379;-76
2022/03/17 19:46:07;;;;;;;20.60;6.32;;;6.30;99.90;;;;;;4974720;28;20105;-76
2022/03/17 19:48:35;;;;;;;17.95;4.75;;;6.30;99.90;;;;;;4990778;28;20506;-76
2022/03/17 19:51:13;;;;;;;22.75;4.38;;;6.30;99.90;;;;;;4991398;28;20456;-76
2022/03/17 19:53:39;;;;;;;23.02;4.32;;;6.30;99.90;;;;;;4959502;28;20054;-77
2022/03/17 19:56:07;;;;;;;21.08;4.85;;;6.20;99.90;;;;;;4975513;28;20505;-78
2022/03/17 19:58:37;;;;;;;14.02;4.75;;;6.20;99.90;;;;;;4991145;28;20062;-76
2022/03/17 20:01:23;;;;;;;18.58;4.88;;;6.20;99.90;;;;;;4967108;28;20047;-77
2022/03/17 20:03:54;;;;;;;15.18;4.80;;;6.20;99.90;;;;;;4958932;28;20062;-76
2022/03/17 20:06:19;;;;;;;19.75;4.70;;;6.20;99.90;;;;;;4976357;28;20528;-76
2022/03/17 20:08:45;;;;;;;18.25;4.38;;;6.10;99.90;;;;;;4979656;28;20047;-74
2022/03/17 20:14:02;;;;;;;22.75;4.85;;;6.10;99.90;;;;;;4976425;28;20570;-75
2022/03/17 20:16:35;;;;;;;23.45;5.68;;;6.10;99.90;;;;;;4958514;28;20082;-77
2022/03/17 20:19:02;;;;;;;22.08;6.00;;;6.10;99.90;;;;;;4975266;28;20466;-77
2022/03/17 20:21:28;;;;;;;27.65;5.15;;;6.10;99.90;;;;;;4958836;28;20101;-76
2022/03/17 20:23:54;;;;;;;15.30;4.40;;;6.10;99.90;;;;;;4959356;28;20510;-77
2022/03/17 20:26:21;;;;;;;16.90;5.95;;;6.00;99.90;;;;;;4976130;28;20418;-76
2022/03/17 20:28:50;;;;;;;20.08;5.05;;;6.00;99.90;;;;;;4958815;28;20050;-76
2022/03/17 20:31:19;;;;;;;20.83;5.82;;;6.00;99.90;;;;;;4958399;28;20050;-76
2022/03/17 20:33:47;;;;;;;21.75;5.95;;;6.00;99.90;;;;;;4974538;28;20063;-76
2022/03/17 20:36:13;;;;;;;15.10;4.97;;;5.90;99.90;;;;;;4975837;28;20100;-76
2022/03/17 20:38:39;;;;;;;25.92;5.50;;;5.90;99.90;;;;;;4973769;28;20051;-77
2022/03/17 20:41:29;;;;;;;14.93;5.20;;;5.90;99.90;;;;;;4958496;28;20062;-77
2022/03/17 20:43:59;;;;;;;15.98;4.32;;;5.90;99.90;;;;;;4973770;28;20057;-77
2022/03/17 20:46:29;;;;;;;;;;;5.80;99.90;;;;;;4960383;28;20051;-76
2022/03/17 20:49:12;;;;;;;22.17;5.50;;;5.80;99.90;;;;;;4994192;28;20008;-77
2022/03/17 20:51:40;;;;;;;27.30;5.30;;;5.80;99.90;;;;;;4966343;28;20141;-79
2022/03/17 20:54:06;;;;;;;15.32;5.30;;;5.70;99.90;;;;;;4958879;28;20050;-76
2022/03/17 20:56:31;;;;;;;22.33;7.43;;;5.70;99.90;;;;;;4974585;28;20407;-76
2022/03/17 20:58:57;;;;;;;21.15;5.03;;;5.70;99.90;;;;;;4958620;28;20051;-78
2022/03/17 21:01:23;;;;;;;19.35;5.65;;;5.70;99.90;;;;;;4984824;28;20045;-76
2022/03/17 21:03:50;;;;;;;19.38;5.22;;;5.70;99.90;;;;;;4995188;28;20050;-76
2022/03/17 21:06:20;;;;;;;25.80;6.25;;;5.60;99.90;;;;;;4977851;28;20422;-77
2022/03/17 21:08:47;;;;;;;16.33;6.75;;;5.60;99.90;;;;;;4992744;28;20066;-76
2022/03/17 21:11:15;;;;;;;18.30;5.50;;;5.60;99.90;;;;;;4993000;28;20046;-77
2022/03/17 21:13:43;;;;;;;24.58;5.93;;;5.60;99.90;;;;;;4974172;28;20515;-79
2022/03/17 21:16:09;;;;;;;19.40;6.13;;;5.60;99.90;;;;;;4994461;28;20054;-78
2022/03/17 21:18:37;;;;;;;22.60;6.43;;;5.60;99.90;;;;;;4992947;28;20498;-76
2022/03/17 21:21:04;;;;;;;25.30;8.20;;;5.60;99.90;;;;;;4976898;28;20046;-76
2022/03/17 21:23:57;;;;;;;19.15;5.28;;;5.60;99.90;;;;;;4993296;28;20061;-76
2022/03/17 21:26:24;;;;;;;22.33;6.22;;;5.60;99.90;;;;;;4972820;28;20581;-76
2022/03/17 21:28:50;;;;;;;20.50;5.43;;;5.60;99.90;;;;;;4956962;28;20090;-77
2022/03/17 21:31:39;;;;;;;21.90;6.20;;;5.60;99.90;;;;;;4959814;28;20062;-77
2022/03/17 21:34:05;;;;;;;15.27;5.93;;;5.60;99.90;;;;;;4963410;28;20580;-77
2022/03/17 21:36:34;;;;;;;19.73;6.35;;;5.60;99.90;;;;;;4973589;28;20122;-76
2022/03/17 21:39:06;;;;;;;23.00;6.22;;;5.60;99.90;;;;;;4956929;28;20090;-76
2022/03/17 21:41:33;;;;;;;17.88;5.90;;;5.50;99.90;;;;;;4956497;28;20580;-75
2022/03/17 21:44:00;;;;;;;18.60;6.05;;;5.50;99.90;;;;;;4972315;28;20050;-76
2022/03/17 21:46:29;;;;;;;28.75;5.80;;;5.50;99.90;;;;;;4956081;28;20066;-76
2022/03/17 21:48:59;;;;;;;22.50;6.57;;;5.50;99.90;;;;;;4956019;28;20141;-76
2022/03/17 21:51:29;;;;;;;17.83;5.63;;;5.50;99.90;;;;;;4924630;28;20058;-76
2022/03/17 21:53:56;;;;;;;21.00;6.07;;;5.50;99.90;;;;;;4955045;28;20094;-76
2022/03/17 21:56:22;;;;;;;24.92;6.32;;;5.50;99.90;;;;;;4957471;28;20130;-76
2022/03/17 21:58:51;;;;;;;19.75;6.25;;;5.50;99.90;;;;;;4993926;28;20082;-76
2022/03/17 22:01:20;;;;;;;16.45;6.20;;;5.40;99.90;;;;;;4982349;28;20072;-76
2022/03/17 22:03:46;;;;;;;19.48;5.97;;;5.40;99.90;;;;;;4974378;28;20495;-75
2022/03/17 22:06:17;;;;;;;16.65;7.05;;;5.40;99.90;;;;;;4973086;28;20050;-76
2022/03/17 22:08:44;;;;;;;31.80;9.80;;;5.40;99.90;;;;;;4957410;28;20133;-77
2022/03/17 22:11:10;;;;;;;21.40;7.55;;;5.40;99.90;;;;;;4979220;28;20167;-76
2022/03/17 22:13:40;;;;;;;17.23;7.45;;;5.30;99.90;;;;;;4942200;28;20138;-76
2022/03/17 22:16:09;;;;;;;30.00;7.43;;;5.40;99.90;;;;;;4972935;28;20053;-77
2022/03/17 22:18:35;;;;;;;25.27;8.93;;;5.30;99.90;;;;;;4972884;28;20093;-77
2022/03/17 22:21:05;;;;;;;28.52;7.13;;;5.30;99.90;;;;;;4973833;28;20522;-77
2022/03/17 22:23:32;;;;;;;16.02;6.75;;;5.30;99.90;;;;;;4972489;28;20074;-76
2022/03/17 22:25:59;;;;;;;22.40;7.80;;;5.30;99.90;;;;;;4939088;28;20053;-77
2022/03/17 22:28:28;;;;;;;16.15;6.47;;;5.30;99.90;;;;;;4956234;28;20146;-77
2022/03/17 22:30:57;;;;;;;16.75;6.15;;;5.30;99.90;;;;;;4939672;28;20058;-76
2022/03/17 22:33:23;;;;;;;22.35;6.50;;;5.30;99.90;;;;;;4974088;28;20125;-76
2022/03/17 22:35:49;;;;;;;17.55;6.82;;;5.30;99.90;;;;;;4972656;28;20498;-76
2022/03/17 22:38:15;;;;;;;24.08;8.43;;;5.30;99.90;;;;;;4973630;28;20046;-77
2022/03/17 22:43:29;;;;;;;20.40;7.00;;;5.30;99.90;;;;;;4971954;28;20055;-77
2022/03/17 22:45:56;;;;;;;20.98;6.97;;;5.30;99.90;;;;;;4971942;28;20425;-77
2022/03/17 22:48:21;;;;;;;29.02;9.65;;;5.30;99.90;;;;;;4972518;28;20486;-77
2022/03/17 22:50:47;;;;;;;20.52;6.88;;;5.30;99.90;;;;;;4973760;28;20074;-76
2022/03/17 22:53:15;;;;;;;16.85;6.10;;;5.20;99.90;;;;;;4975927;28;20098;-77
2022/03/17 22:56:00;;;;;;;15.38;6.55;;;5.20;99.90;;;;;;4981235;28;20089;-76
2022/03/17 22:58:26;;;;;;;17.75;6.35;;;5.20;99.90;;;;;;4971766;28;20047;-76
2022/03/17 23:00:55;;;;;;;19.15;6.93;;;5.20;99.90;;;;;;4955985;28;20043;-75
2022/03/17 23:03:21;;;;;;;24.73;8.00;;;5.20;99.90;;;;;;4971884;28;20047;-77
2022/03/17 23:05:50;;;;;;;20.45;6.40;;;5.20;99.90;;;;;;4940685;28;20481;-75
2022/03/17 23:08:17;;;;;;;20.17;7.57;;;5.10;99.90;;;;;;4971127;28;20113;-76
2022/03/17 23:10:47;;;;;;;21.20;7.40;;;5.20;99.90;;;;;;4955712;28;20111;-75
2022/03/17 23:13:29;;;;;;;17.95;7.10;;;5.20;99.90;;;;;;4955593;28;20109;-77
2022/03/17 23:16:14;;;;;;;25.40;6.82;;;5.10;99.90;;;;;;4973478;28;20062;-75
2022/03/17 23:18:43;;;;;;;17.55;6.70;;;5.10;99.90;;;;;;4971843;28;20059;-75
2022/03/17 23:21:36;;;;;;;20.58;7.68;;;5.10;99.90;;;;;;4956040;28;20057;-77
2022/03/17 23:24:03;;;;;;;19.27;8.20;;;5.10;99.90;;;;;;4951413;29;20051;-75
2022/03/17 23:26:29;;;;;;;20.30;7.68;;;5.10;99.90;;;;;;4935424;29;20047;-76
2022/03/17 23:28:55;;;;;;;23.33;8.23;;;5.00;99.90;;;;;;4935685;29;20431;-76
2022/03/17 23:31:28;;;;;;;18.15;8.27;;;5.00;99.90;;;;;;4954134;28;20449;-76
2022/03/17 23:33:53;;;;;;;16.73;7.55;;;5.00;99.90;;;;;;4954751;28;20054;-76
2022/03/17 23:36:19;;;;;;;25.95;8.30;;;5.00;99.90;;;;;;4955500;28;20133;-75
2022/03/17 23:38:49;;;;;;;23.85;7.97;;;5.00;99.90;;;;;;4943042;28;20081;-76
2022/03/17 23:41:15;;;;;;;23.35;7.55;;;4.90;99.90;;;;;;4947128;28;20058;-77
2022/03/17 23:43:45;;;;;;;17.23;7.55;;;4.90;99.90;;;;;;4976647;28;20125;-75
2022/03/17 23:46:16;;;;;;;20.17;7.80;;;4.90;99.90;;;;;;4954907;29;20048;-75
2022/03/17 23:48:43;;;;;;;19.38;7.68;;;4.90;99.90;;;;;;4939112;29;20094;-75
2022/03/17 23:51:09;;;;;;;17.33;7.88;;;4.80;99.90;;;;;;4938522;29;20491;-76
2022/03/17 23:53:34;;;;;;;20.42;7.15;;;4.80;99.90;;;;;;4922714;29;20055;-75
2022/03/17 23:56:05;;;;;;;19.20;9.07;;;4.80;99.90;;;;;;4973072;28;20142;-74
2022/03/17 23:58:31;;;;;;;22.55;8.23;;;4.80;99.90;;;;;;4976737;28;20065;-76
